Flight Track Log - Related Links

Times and Time Zones

All times are in EDT time to prevent confusion due to time zone crossing. See the UCA3596 flight status page for this flight to view local times or setup timezone preferences in your user account.

Time Position Orientation Groundspeed Altitude Reporting Facility
EDT Latitude Longitude Course Direction KTS MPH feet Rate Location/Type
Wed 03:00:51 PM 42.1519 -75.9933 209° Southwest 169 194 3,700  Level New York Center
Wed 03:01:51 PM 42.1128 -76.0347 218° Southwest 175 201 5,100 1,400 Climbing New York Center
Wed 03:02:00 PM 42.0270 -76.0661 212° Southwest  Level Estimated
Wed 03:02:51 PM 42.0692 -76.0761 215° Southwest 187 215 6,500  Level New York Center
Wed 03:03:00 PM 41.9665 -76.0949 209° Southwest  Level Estimated
Wed 03:03:51 PM 42.0236 -76.1197 215° Southwest 200 230 7,900  Level New York Center
Wed 03:04:00 PM 41.9286 -76.1645 234° Southwest  Level FlightAware Approximate
Wed 03:04:51 PM 41.9736 -76.1689 216° Southwest 206 237 9,400  Level New York Center
Wed 03:05:00 PM 41.8679 -76.1922 209° Southwest  Level Estimated
Wed 03:05:51 PM 41.9278 -76.2125 215° Southwest 206 237 10,800  Level New York Center
Wed 03:06:51 PM 41.8819 -76.2561 215° Southwest 206 237 11,800 1,000 Climbing New York Center
Wed 03:07:51 PM 41.8406 -76.2972 217° Southwest 211 243 12,800 1,050 Climbing New York Center
Wed 03:08:51 PM 41.7839 -76.3508 215° Southwest 221 254 13,900 600 Climbing New York Center
Wed 03:09:51 PM 41.7294 -76.4047 216° Southwest 236 272 14,000 50 Climbing New York Center
Wed 03:10:51 PM 41.6683 -76.4606 214° Southwest 259 298 14,000  Level New York Center
Wed 03:11:51 PM 41.6136 -76.5142 216° Southwest 274 315 14,000  Level New York Center
Wed 03:12:51 PM 41.5503 -76.5756 216° Southwest 279 321 14,000  Level New York Center
Wed 03:13:51 PM 41.4806 -76.6386 214° Southwest 279 321 14,000  Level New York Center
Wed 03:14:51 PM 41.4256 -76.6975 219° Southwest 279 321 14,000  Level New York Center
Wed 03:15:51 PM 41.3622 -76.7556 215° Southwest 279 321 14,000  Level New York Center
Wed 03:16:51 PM 41.2897 -76.7906 200° South 279 321 14,000  Level New York Center
Wed 03:17:51 PM 41.2161 -76.8033 187° South 271 312 14,000  Level New York Center
Wed 03:18:51 PM 41.1403 -76.8186 189° South 271 312 14,000  Level New York Center
Wed 03:19:51 PM 41.0647 -76.8311 187° South 271 312 14,000  Level New York Center
Wed 03:20:51 PM 40.9994 -76.8444 189° South 277 319 14,000  Level New York Center
Wed 03:21:51 PM 40.9172 -76.8592 188° South 277 319 14,000  Level New York Center
Wed 03:22:51 PM 40.8353 -76.8764 189° South 277 319 14,000  Level New York Center
Wed 03:23:51 PM 40.7697 -76.8925 191° South 277 319 14,000  Level New York Center
Wed 03:24:51 PM 40.6872 -76.9181 193° South 284 327 14,000  Level New York Center
Wed 03:26:00 PM 40.6079 -76.9399 192° South  Level FlightAware Approximate
Wed 03:26:51 PM 40.5389 -76.9650 192° South 279 321 14,000  Level New York Center
Wed 03:27:51 PM 40.4644 -76.9883 193° South 279 321 14,000  Level New York Center
Wed 03:28:51 PM 40.3925 -77.0089 192° South 279 321 14,000  Level New York Center
Wed 03:29:51 PM 40.3164 -77.0322 193° South 284 327 14,000  Level New York Center
Wed 03:30:51 PM 40.2422 -77.0525 192° South 284 327 14,000  Level New York Center
Wed 03:31:51 PM 40.1700 -77.0786 195° South 284 327 14,000 -182 Level New York Center
Wed 03:34:09 PM 40.0000 -77.1333 194° South 281 323 13,400 -469 Descending Potomac TRACON
Wed 03:35:03 PM 39.9333 -77.1500 191° South 296 341 12,500 -1,158 Descending Potomac TRACON
Wed 03:36:03 PM 39.8500 -77.2000 205° Southwest 303 349 11,200 -1,289 Descending Potomac TRACON
Wed 03:37:04 PM 39.7667 -77.2500 205° Southwest 287 330 9,900 -1,289 Descending Potomac TRACON
Wed 03:38:04 PM 39.7000 -77.2833 201° Southwest 272 313 8,600 -1,263 Descending Potomac TRACON
Wed 03:38:58 PM 39.6500 -77.3333 218° Southwest 265 305 7,500 -842 Descending Potomac TRACON
Wed 03:39:58 PM 39.5667 -77.3333 180° South 256 295 7,000 -600 Descending Potomac TRACON
Wed 03:40:58 PM 39.5000 -77.3333 180° South 260 299 6,300 -850 Descending Potomac TRACON
Wed 03:41:58 PM 39.4333 -77.3333 180° South 262 302 5,300 -678 Descending Potomac TRACON
Wed 03:42:53 PM 39.3667 -77.3500 191° South 259 298 5,000 -157 Descending Potomac TRACON
Wed 03:43:53 PM 39.3000 -77.3500 180° South 255 293 5,000 -350 Level Potomac TRACON
Wed 03:44:53 PM 39.2333 -77.3500 180° South 255 293 4,300 -500 Descending Potomac TRACON
Wed 03:45:53 PM 39.1500 -77.3500 180° South 259 298 4,000 -149 Descending Potomac TRACON
Wed 03:46:54 PM 39.0833 -77.3500 180° South 245 282 4,000  Level Potomac TRACON
Wed 03:48:00 PM 39.0167 -77.3500 180° South 247 284 4,000 -143 Level Potomac TRACON
Wed 03:49:00 PM 38.9333 -77.3500 180° South 250 288 3,700 -526 Descending Potomac TRACON
Wed 03:49:54 PM 38.8833 -77.3500 180° South 239 275 3,000 -368 Descending Potomac TRACON
Wed 03:50:54 PM 38.8167 -77.3500 180° South 212 244 3,000 -238 Level Potomac TRACON
Wed 03:52:00 PM 38.7667 -77.4000 218° Southwest 225 259 2,500 -496 Descending Potomac TRACON
Wed 03:52:55 PM 38.8000 -77.4333 322° Northwest 183 211 2,000 -313 Descending Potomac TRACON
Wed 03:53:55 PM 38.8333 -77.4333 360° North 146 168 1,900 -400 Descending Potomac TRACON
Wed 03:54:55 PM 38.8833 -77.4333 360° North 141 162 1,200 -700 Descending Potomac TRACON
Wed 03:55:55 PM 38.9167 -77.4333 360° North 138 159 500 -700 Descending Potomac TRACON
Wed 03:57:00 PM 38.9333 -77.4500 349° North  Level FlightAware Approximate
Wed 04:04:00 PM 38.9474 -77.4599 349° North  Level Estimated

Login

Don't have an account? Register now (free) for customized features, flight alerts, and more!